createdAt,value
2019-05-26T00:01:26.969Z,45.10
2019-05-26T00:07:09.852Z,34.67
2019-05-26T00:09:44.758Z,38.35
2019-05-26T00:12:05.756Z,35.95
2019-05-26T00:14:51.342Z,38.42
2019-05-26T00:17:30.341Z,29.00
2019-05-26T00:19:56.289Z,28.38
2019-05-26T00:22:13.403Z,32.10
2019-05-26T00:24:36.048Z,34.55
2019-05-26T00:26:51.627Z,33.10
2019-05-26T00:29:23.591Z,34.95
2019-05-26T00:31:59.008Z,33.50
2019-05-26T00:34:43.697Z,32.88
2019-05-26T00:37:07.981Z,32.03
2019-05-26T00:39:23.661Z,33.58
2019-05-26T00:41:45.492Z,33.58
2019-05-26T00:44:00.965Z,33.58
2019-05-26T00:46:46.138Z,34.60
2019-05-26T00:49:33.360Z,37.45
2019-05-26T00:52:13.487Z,36.50
2019-05-26T00:55:05.007Z,36.30
2019-05-26T00:57:37.932Z,38.00
2019-05-26T01:00:23.310Z,39.70
2019-05-26T01:03:04.583Z,36.85
2019-05-26T01:05:24.266Z,40.33
2019-05-26T01:08:12.402Z,39.03
2019-05-26T01:10:55.918Z,42.20
2019-05-26T01:13:14.178Z,39.23
2019-05-26T01:15:31.289Z,34.33
2019-05-26T01:20:37.069Z,41.28
2019-05-26T01:23:13.642Z,39.08
2019-05-26T01:25:33.204Z,40.73
2019-05-26T01:27:46.748Z,37.85
2019-05-26T01:30:09.997Z,41.45
2019-05-26T01:32:47.080Z,39.35
2019-05-26T01:34:57.131Z,37.93
2019-05-26T01:37:35.952Z,37.67
2019-05-26T01:39:51.123Z,39.33
2019-05-26T01:42:25.032Z,37.98
2019-05-26T01:45:12.048Z,38.15
2019-05-26T01:47:44.626Z,33.65
2019-05-26T01:50:12.390Z,34.03
2019-05-26T01:52:36.061Z,32.67
2019-05-26T01:55:09.763Z,34.73
2019-05-26T01:57:42.034Z,28.77
2019-05-26T02:00:17.378Z,28.17
2019-05-26T02:05:33.284Z,34.48
2019-05-26T02:08:02.492Z,33.45
2019-05-26T02:10:29.533Z,32.67
2019-05-26T02:12:44.496Z,28.50
2019-05-26T02:15:00.587Z,30.35
2019-05-26T02:17:19.856Z,21.75
2019-05-26T02:19:31.951Z,21.48
2019-05-26T02:22:07.088Z,21.05
2019-05-26T02:24:46.359Z,21.55
2019-05-26T02:27:33.852Z,20.48
2019-05-26T02:30:11.094Z,21.42
2019-05-26T02:32:37.059Z,23.55
2019-05-26T02:35:21.827Z,22.58
2019-05-26T02:37:47.341Z,24.10
2019-05-26T02:40:22.271Z,24.90
2019-05-26T02:45:51.490Z,30.25
2019-05-26T02:48:38.198Z,30.88
2019-05-26T02:53:45.373Z,36.88
2019-05-26T02:56:34.161Z,33.70
2019-05-26T02:59:20.477Z,36.30
2019-05-26T03:04:55.831Z,35.08
2019-05-26T03:07:23.791Z,35.20
2019-05-26T03:09:56.526Z,33.15
2019-05-26T03:12:42.078Z,31.77
2019-05-26T03:18:13.325Z,37.75
2019-05-26T03:20:30.745Z,36.90
2019-05-26T03:23:20.117Z,33.90
2019-05-26T03:26:04.265Z,32.67
2019-05-26T03:28:30.393Z,30.50
2019-05-26T03:31:10.447Z,33.58
2019-05-26T03:33:47.446Z,35.85
2019-05-26T03:36:27.377Z,34.92
2019-05-26T03:38:57.768Z,38.28
2019-05-26T03:41:45.204Z,37.58
2019-05-26T03:46:50.897Z,35.50
2019-05-26T03:49:02.074Z,34.80
2019-05-26T03:51:14.377Z,35.13
2019-05-26T03:53:31.192Z,37.70
2019-05-26T03:55:57.827Z,33.60
2019-05-26T03:58:38.695Z,30.40
2019-05-26T04:01:16.073Z,30.92
2019-05-26T04:03:35.967Z,33.40
2019-05-26T04:06:00.496Z,30.70
2019-05-26T04:08:19.824Z,31.60
2019-05-26T04:10:34.792Z,32.70
2019-05-26T04:13:05.626Z,38.88
2019-05-26T04:15:27.554Z,36.95
2019-05-26T04:17:42.722Z,34.33
2019-05-26T04:20:01.383Z,34.50
2019-05-26T04:22:41.032Z,37.33
2019-05-26T04:25:08.779Z,33.67
2019-05-26T04:27:45.875Z,34.18
2019-05-26T04:30:12.404Z,32.48
2019-05-26T04:32:26.447Z,30.77
2019-05-26T04:34:42.030Z,31.40
2019-05-26T04:36:57.194Z,30.62
2019-05-26T04:39:09.190Z,30.45
2019-05-26T04:41:49.354Z,29.23
2019-05-26T04:44:26.909Z,28.57
2019-05-26T04:46:51.941Z,25.62
2019-05-26T04:49:08.548Z,25.52
2019-05-26T04:51:24.225Z,25.40
2019-05-26T04:53:39.597Z,19.67
2019-05-26T04:55:57.635Z,18.10
2019-05-26T04:58:43.526Z,16.62
2019-05-26T05:01:28.697Z,16.57
2019-05-26T05:03:54.004Z,12.05
2019-05-26T05:08:42.776Z,11.97
2019-05-26T05:11:25.671Z,11.12
2019-05-26T05:13:52.133Z,11.78
2019-05-26T05:16:22.152Z,10.15
2019-05-26T05:18:47.770Z,9.93
2019-05-26T05:21:08.051Z,10.75
2019-05-26T05:24:01.526Z,9.80
2019-05-26T05:26:35.507Z,10.68
2019-05-26T05:29:06.370Z,9.53
2019-05-26T05:31:23.176Z,8.05
2019-05-26T05:33:46.127Z,6.42
2019-05-26T05:36:03.652Z,7.62
2019-05-26T05:38:28.858Z,5.12
2019-05-26T05:40:59.633Z,4.37
2019-05-26T05:43:17.323Z,4.72
2019-05-26T05:45:45.498Z,4.72
2019-05-26T05:48:08.144Z,4.75
2019-05-26T05:50:19.523Z,4.58
2019-05-26T05:52:41.255Z,4.92
2019-05-26T05:55:13.420Z,4.70
2019-05-26T05:57:44.661Z,4.85
2019-05-26T06:00:02.497Z,5.17
2019-05-26T06:02:33.022Z,5.17
2019-05-26T06:05:25.324Z,4.80
2019-05-26T06:08:02.928Z,5.15
2019-05-26T06:10:23.555Z,5.67
2019-05-26T06:13:09.755Z,5.33
2019-05-26T06:15:52.334Z,5.28
2019-05-26T06:18:23.210Z,5.67
2019-05-26T06:20:53.230Z,5.20
2019-05-26T06:23:29.177Z,5.08
2019-05-26T06:26:11.690Z,5.15
2019-05-26T06:28:58.293Z,4.58
2019-05-26T06:31:26.161Z,5.50
2019-05-26T06:33:55.156Z,6.22
2019-05-26T06:36:29.377Z,6.22
2019-05-26T06:39:07.380Z,6.30
2019-05-26T06:41:33.876Z,6.30
2019-05-26T06:44:06.798Z,6.35
2019-05-26T06:46:48.283Z,6.55
2019-05-26T06:49:26.494Z,7.65
2019-05-26T06:52:01.939Z,7.08
2019-05-26T06:54:30.011Z,6.70
2019-05-26T06:56:46.716Z,5.95
2019-05-26T06:59:22.984Z,6.53
2019-05-26T07:04:53.943Z,6.95
2019-05-26T07:07:15.152Z,7.20
2019-05-26T07:09:44.455Z,6.83
2019-05-26T07:12:41.199Z,7.30
2019-05-26T07:15:21.836Z,7.25
2019-05-26T07:17:47.279Z,7.35
2019-05-26T07:20:26.364Z,7.55
2019-05-26T07:23:13.944Z,7.92
2019-05-26T07:25:35.863Z,7.65
2019-05-26T07:28:13.256Z,7.80
2019-05-26T07:31:00.886Z,7.50
2019-05-26T07:33:53.370Z,6.62
2019-05-26T07:36:36.965Z,7.03
2019-05-26T07:39:25.067Z,5.25
2019-05-26T07:42:09.404Z,5.50
2019-05-26T07:44:17.975Z,5.55
2019-05-26T07:46:49.639Z,6.05
2019-05-26T07:49:22.182Z,5.62
2019-05-26T07:51:44.240Z,6.95
2019-05-26T07:53:56.313Z,6.20
2019-05-26T07:56:15.502Z,6.62
2019-05-26T07:58:50.435Z,6.25
2019-05-26T08:01:36.303Z,6.22
2019-05-26T08:04:15.048Z,5.20
2019-05-26T08:06:43.732Z,5.70
2019-05-26T08:09:12.623Z,5.95
2019-05-26T08:11:52.339Z,5.22
2019-05-26T08:14:38.247Z,5.17
2019-05-26T08:20:10.994Z,5.40
2019-05-26T08:22:39.205Z,5.80
2019-05-26T08:25:13.249Z,5.90
2019-05-26T08:28:04.387Z,6.03
2019-05-26T08:30:51.201Z,6.40
2019-05-26T08:33:05.523Z,6.05
2019-05-26T08:35:20.282Z,6.25
2019-05-26T08:37:57.541Z,6.22
2019-05-26T08:40:35.941Z,6.08
2019-05-26T08:43:01.198Z,6.92
2019-05-26T08:45:23.353Z,6.40
2019-05-26T08:48:01.912Z,6.78
2019-05-26T08:50:37.140Z,6.22
2019-05-26T08:53:03.412Z,6.40
2019-05-26T08:55:42.513Z,6.58
2019-05-26T08:58:13.464Z,6.42
2019-05-26T09:00:36.765Z,5.78
2019-05-26T09:03:24.680Z,6.50
2019-05-26T09:05:58.384Z,6.28
2019-05-26T09:08:37.313Z,6.15
2019-05-26T09:11:18.807Z,6.28
2019-05-26T09:13:59.159Z,5.75
2019-05-26T09:16:45.685Z,5.80
2019-05-26T09:19:25.204Z,5.30
2019-05-26T09:22:02.902Z,6.00
2019-05-26T09:24:39.268Z,5.70
2019-05-26T09:30:17.305Z,5.15
2019-05-26T09:33:08.203Z,6.55
2019-05-26T09:35:55.844Z,6.50
2019-05-26T09:38:42.894Z,5.55
2019-05-26T09:41:20.247Z,4.92
2019-05-26T09:43:56.197Z,6.37
2019-05-26T09:46:39.289Z,6.53
2019-05-26T09:49:23.749Z,6.05
2019-05-26T09:51:50.007Z,6.45
2019-05-26T09:54:05.278Z,6.25
2019-05-26T09:56:40.463Z,6.95
2019-05-26T09:59:17.983Z,7.47
2019-05-26T10:02:00.945Z,6.53
2019-05-26T10:04:19.584Z,6.60
2019-05-26T10:06:51.682Z,6.35
2019-05-26T10:09:32.113Z,5.87
2019-05-26T10:12:12.886Z,5.58
2019-05-26T10:14:39.315Z,6.47
2019-05-26T10:16:52.542Z,6.45
2019-05-26T10:19:28.409Z,6.92
2019-05-26T10:22:09.987Z,6.35
2019-05-26T10:24:58.025Z,6.25
2019-05-26T10:27:32.957Z,6.65
2019-05-26T10:29:58.161Z,6.95
2019-05-26T10:32:32.380Z,6.85
2019-05-26T10:37:49.821Z,6.17
2019-05-26T10:40:21.143Z,6.00
2019-05-26T10:42:46.991Z,5.92
2019-05-26T10:45:14.858Z,5.90
2019-05-26T10:47:31.462Z,6.33
2019-05-26T10:50:03.833Z,5.17
2019-05-26T10:52:35.176Z,6.83
2019-05-26T10:54:57.622Z,6.40
2019-05-26T10:57:13.406Z,6.80
2019-05-26T10:59:26.840Z,5.97
2019-05-26T11:05:05.345Z,6.20
2019-05-26T11:07:29.451Z,5.80
2019-05-26T11:09:44.826Z,5.60
2019-05-26T11:15:09.859Z,5.22
2019-05-26T11:17:35.775Z,5.20
2019-05-26T11:19:51.963Z,5.33
2019-05-26T11:22:31.710Z,5.37
2019-05-26T11:25:10.401Z,5.50
2019-05-26T11:28:11.142Z,5.40
2019-05-26T11:30:30.742Z,5.08
2019-05-26T11:33:06.289Z,4.45
2019-05-26T11:35:36.409Z,4.95
2019-05-26T11:38:19.229Z,5.20
2019-05-26T11:40:55.599Z,5.35
2019-05-26T11:43:53.299Z,5.00
2019-05-26T11:49:29.208Z,5.20
2019-05-26T11:51:54.036Z,4.95
2019-05-26T11:54:34.814Z,4.78
2019-05-26T11:56:59.086Z,5.12
2019-05-26T11:59:30.845Z,4.90
2019-05-26T12:01:55.029Z,4.95
2019-05-26T12:04:18.900Z,5.25
2019-05-26T12:07:08.378Z,4.83
2019-05-26T12:09:36.352Z,5.05
2019-05-26T12:12:09.506Z,5.20
2019-05-26T12:14:34.923Z,4.42
2019-05-26T12:17:01.847Z,4.12
2019-05-26T12:19:18.607Z,4.33
2019-05-26T12:21:44.486Z,4.70
2019-05-26T12:24:24.898Z,4.80
2019-05-26T12:27:04.509Z,4.70
2019-05-26T12:29:42.638Z,4.80
2019-05-26T12:32:27.290Z,4.30
2019-05-26T12:34:41.647Z,4.40
2019-05-26T12:36:56.197Z,4.70
2019-05-26T12:39:11.573Z,4.72
2019-05-26T12:41:26.432Z,4.92
2019-05-26T12:44:10.723Z,4.60
2019-05-26T12:46:41.419Z,4.62
2019-05-26T12:49:27.877Z,4.83
2019-05-26T12:51:53.743Z,4.25
2019-05-26T12:54:08.196Z,4.40
2019-05-26T12:56:49.998Z,4.50
2019-05-26T12:59:39.329Z,4.20
2019-05-26T13:02:02.211Z,4.30
2019-05-26T13:04:38.345Z,4.03
2019-05-26T13:07:32.732Z,4.17
2019-05-26T13:09:54.177Z,4.42
2019-05-26T13:12:08.322Z,4.30
2019-05-26T13:14:39.950Z,4.35
2019-05-26T13:17:27.050Z,4.05
2019-05-26T13:19:49.333Z,4.40
2019-05-26T13:22:25.705Z,4.47
2019-05-26T13:25:10.010Z,4.03
2019-05-26T13:27:55.099Z,4.30
2019-05-26T13:30:28.520Z,4.05
2019-05-26T13:33:07.447Z,3.40
2019-05-26T13:35:43.816Z,3.80
2019-05-26T13:38:40.767Z,3.77
2019-05-26T13:41:26.115Z,3.90
2019-05-26T13:46:58.946Z,3.83
2019-05-26T13:49:45.042Z,3.75
2019-05-26T13:52:22.537Z,4.40
2019-05-26T13:55:08.603Z,3.98
2019-05-26T13:57:40.899Z,4.15
2019-05-26T14:00:27.989Z,4.53
2019-05-26T14:02:54.556Z,4.35
2019-05-26T14:05:30.258Z,4.25
2019-05-26T14:08:10.768Z,4.00
2019-05-26T14:10:42.936Z,3.83
2019-05-26T14:13:15.004Z,3.70
2019-05-26T14:15:56.801Z,3.75
2019-05-26T14:18:42.387Z,4.00
2019-05-26T14:21:14.752Z,4.40
2019-05-26T14:23:58.152Z,3.70
2019-05-26T14:26:19.701Z,3.47
2019-05-26T14:29:02.593Z,3.35
2019-05-26T14:31:46.538Z,3.27
2019-05-26T14:34:30.418Z,3.20
2019-05-26T14:37:07.806Z,3.80
2019-05-26T14:39:56.559Z,3.20
2019-05-26T14:42:17.357Z,3.30
2019-05-26T14:44:49.005Z,3.33
2019-05-26T14:47:50.369Z,3.67
2019-05-26T14:50:18.233Z,3.37
2019-05-26T14:52:51.706Z,3.50
2019-05-26T14:58:35.101Z,4.15
2019-05-26T15:00:59.987Z,3.67
2019-05-26T15:03:12.693Z,3.95
2019-05-26T15:05:29.399Z,3.50
2019-05-26T15:07:46.620Z,3.35
2019-05-26T15:12:48.290Z,3.42
2019-05-26T15:15:24.662Z,3.35
2019-05-26T15:17:44.846Z,3.10
2019-05-26T15:20:25.515Z,3.30
2019-05-26T15:22:48.573Z,3.45
2019-05-26T15:25:20.807Z,2.70
2019-05-26T15:28:06.730Z,3.50
2019-05-26T15:30:49.621Z,3.20
2019-05-26T15:33:29.193Z,3.58
2019-05-26T15:36:06.797Z,3.55
2019-05-26T15:38:53.291Z,4.50
2019-05-26T15:41:32.317Z,3.10
2019-05-26T15:44:20.679Z,3.83
2019-05-26T15:47:02.871Z,3.98
2019-05-26T15:49:40.674Z,3.27
2019-05-26T15:52:15.194Z,3.50
2019-05-26T15:55:01.426Z,3.42
2019-05-26T15:57:23.829Z,4.03
2019-05-26T16:00:13.202Z,3.62
2019-05-26T16:02:48.655Z,3.30
2019-05-26T16:05:27.270Z,3.77
2019-05-26T16:08:11.007Z,3.80
2019-05-26T16:11:03.456Z,3.95
2019-05-26T16:13:46.169Z,3.92
2019-05-26T16:16:22.226Z,3.55
2019-05-26T16:19:00.023Z,3.70
2019-05-26T16:21:37.111Z,3.55
2019-05-26T16:24:26.900Z,3.65
2019-05-26T16:27:18.590Z,4.03
2019-05-26T16:29:51.603Z,3.77
2019-05-26T16:32:19.027Z,3.70
2019-05-26T16:35:10.553Z,4.12
2019-05-26T16:37:52.173Z,3.92
2019-05-26T16:40:12.879Z,4.10
2019-05-26T16:42:27.528Z,4.25
2019-05-26T16:44:41.283Z,3.98
2019-05-26T16:46:58.796Z,3.70
2019-05-26T16:49:17.235Z,4.10
2019-05-26T16:51:55.762Z,4.25
2019-05-26T16:54:07.242Z,3.83
2019-05-26T16:56:18.649Z,3.92
2019-05-26T16:58:31.638Z,4.40
2019-05-26T17:00:50.289Z,3.72
2019-05-26T17:03:03.001Z,4.03
2019-05-26T17:05:20.629Z,3.90
2019-05-26T17:07:38.256Z,3.83
2019-05-26T17:10:03.054Z,4.10
2019-05-26T17:12:21.087Z,4.58
2019-05-26T17:14:35.947Z,3.98
2019-05-26T17:16:49.478Z,4.28
2019-05-26T17:19:08.133Z,4.12
2019-05-26T17:21:37.328Z,4.50
2019-05-26T17:23:50.558Z,4.47
2019-05-26T17:26:07.464Z,4.65
2019-05-26T17:28:22.939Z,4.55
2019-05-26T17:30:35.453Z,5.17
2019-05-26T17:32:55.124Z,5.20
2019-05-26T17:35:10.500Z,5.47
2019-05-26T17:37:32.030Z,4.75
2019-05-26T17:39:43.715Z,4.80
2019-05-26T17:41:58.668Z,4.90
2019-05-26T17:44:11.492Z,4.90
2019-05-26T17:46:28.715Z,4.65
2019-05-26T17:48:44.584Z,4.95
2019-05-26T17:51:27.505Z,4.95
2019-05-26T17:53:54.199Z,5.05
2019-05-26T17:56:14.023Z,5.25
2019-05-26T17:58:25.310Z,5.55
2019-05-26T18:00:39.351Z,5.40
2019-05-26T18:03:13.355Z,5.37
2019-05-26T18:05:55.664Z,5.72
2019-05-26T18:11:26.858Z,5.25
2019-05-26T18:14:11.900Z,6.08
2019-05-26T18:16:49.085Z,5.17
2019-05-26T18:19:31.292Z,5.30
2019-05-26T18:22:11.956Z,5.95
2019-05-26T18:24:57.163Z,6.50
2019-05-26T18:27:17.936Z,6.58
2019-05-26T18:29:32.998Z,8.00
2019-05-26T18:31:50.573Z,15.18
2019-05-26T18:34:07.126Z,18.98
2019-05-26T18:36:27.523Z,25.57
2019-05-26T18:38:44.225Z,31.75
2019-05-26T18:41:18.950Z,35.92
2019-05-26T18:43:34.119Z,36.08
2019-05-26T18:46:11.922Z,33.67
2019-05-26T18:48:33.644Z,25.00
2019-05-26T18:50:47.584Z,28.05
2019-05-26T18:53:06.644Z,21.65
2019-05-26T18:55:29.596Z,20.77
2019-05-26T18:57:55.622Z,17.37
2019-05-26T19:00:16.116Z,15.98
2019-05-26T19:02:33.435Z,16.30
2019-05-26T19:04:46.664Z,16.62
2019-05-26T19:06:59.883Z,17.10
2019-05-26T19:09:15.057Z,16.60
2019-05-26T19:11:57.565Z,16.15
2019-05-26T19:14:28.095Z,14.90
2019-05-26T19:17:02.821Z,16.02
2019-05-26T19:19:35.199Z,18.82
2019-05-26T19:25:04.926Z,15.28
2019-05-26T19:27:33.101Z,14.18
2019-05-26T19:29:51.037Z,15.30
2019-05-26T19:32:13.802Z,14.45
2019-05-26T19:34:33.055Z,13.50
2019-05-26T19:37:14.024Z,14.07
2019-05-26T19:39:37.495Z,13.98
2019-05-26T19:41:53.686Z,14.78
2019-05-26T19:44:14.181Z,15.45
2019-05-26T19:46:30.482Z,14.78
2019-05-26T19:48:48.617Z,15.05
2019-05-26T19:51:06.244Z,14.60
2019-05-26T19:53:20.384Z,14.58
2019-05-26T19:55:36.171Z,12.75
2019-05-26T19:57:50.447Z,30.32
2019-05-26T20:00:04.979Z,43.28
2019-05-26T20:02:20.968Z,26.65
2019-05-26T20:04:39.112Z,21.27
2019-05-26T20:06:55.194Z,20.00
2019-05-26T20:09:10.975Z,18.80
2019-05-26T20:11:27.681Z,16.23
2019-05-26T20:13:41.414Z,15.00
2019-05-26T20:15:58.780Z,15.35
2019-05-26T20:18:15.646Z,16.67
2019-05-26T20:20:33.298Z,15.90
2019-05-26T20:23:03.292Z,25.23
2019-05-26T20:25:19.798Z,18.07
2019-05-26T20:27:37.120Z,16.97
2019-05-26T20:29:51.767Z,16.82
2019-05-26T20:32:08.270Z,16.07
2019-05-26T20:34:29.994Z,16.55
2019-05-26T20:36:46.802Z,17.20
2019-05-26T20:39:02.077Z,16.30
2019-05-26T20:41:14.786Z,17.82
2019-05-26T20:43:29.655Z,20.37
2019-05-26T20:45:48.092Z,19.65
2019-05-26T20:48:25.381Z,30.27
2019-05-26T20:51:08.848Z,40.08
2019-05-26T20:53:52.661Z,45.60
2019-05-26T20:56:15.204Z,40.90
2019-05-26T20:58:46.140Z,32.58
2019-05-26T21:01:16.538Z,45.15
2019-05-26T21:04:03.173Z,43.70
2019-05-26T21:06:24.484Z,42.03
2019-05-26T21:09:11.760Z,37.95
2019-05-26T21:11:46.130Z,21.17
2019-05-26T21:14:03.038Z,21.33
2019-05-26T21:16:19.436Z,19.92
2019-05-26T21:19:02.189Z,20.35
2019-05-26T21:24:43.051Z,23.15
2019-05-26T21:27:02.412Z,22.52
2019-05-26T21:29:14.392Z,27.77
2019-05-26T21:31:40.346Z,25.35
2019-05-26T21:34:10.729Z,25.12
2019-05-26T21:36:53.342Z,24.55
2019-05-26T21:39:21.343Z,24.27
2019-05-26T21:41:41.731Z,22.48
2019-05-26T21:44:17.763Z,22.67
2019-05-26T21:46:49.052Z,23.90
2019-05-26T21:49:05.640Z,26.00
2019-05-26T21:51:17.737Z,140.55
2019-05-26T21:53:56.973Z,30.72
2019-05-26T21:56:44.706Z,37.08
2019-05-26T21:59:20.768Z,26.23
2019-05-26T22:02:10.397Z,27.32
2019-05-26T22:04:57.703Z,26.68
2019-05-26T22:07:39.358Z,23.90
2019-05-26T22:10:12.910Z,26.68
2019-05-26T22:12:52.092Z,29.27
2019-05-26T22:18:06.679Z,28.25
2019-05-26T22:20:39.577Z,23.18
2019-05-26T22:23:27.385Z,26.50
2019-05-26T22:26:07.718Z,28.10
2019-05-26T22:31:22.258Z,29.80
2019-05-26T22:33:54.390Z,29.02
2019-05-26T22:36:10.789Z,31.73
2019-05-26T22:38:53.883Z,30.15
2019-05-26T22:41:16.764Z,33.02
2019-05-26T22:43:29.063Z,28.80
2019-05-26T22:46:13.249Z,31.95
2019-05-26T22:51:47.525Z,30.68
2019-05-26T22:54:13.884Z,30.48
2019-05-26T22:56:34.992Z,26.48
2019-05-26T22:59:22.294Z,31.80
2019-05-26T23:01:47.932Z,29.60
2019-05-26T23:04:04.534Z,28.30
2019-05-26T23:06:25.233Z,28.38
2019-05-26T23:12:05.383Z,30.65
2019-05-26T23:14:39.936Z,30.72
2019-05-26T23:17:24.391Z,32.20
2019-05-26T23:19:53.487Z,32.67
2019-05-26T23:22:14.849Z,30.23
2019-05-26T23:25:01.460Z,28.83
2019-05-26T23:27:26.919Z,25.80
2019-05-26T23:29:55.297Z,24.35
2019-05-26T23:32:38.211Z,27.95
2019-05-26T23:35:22.368Z,24.87
2019-05-26T23:41:02.955Z,27.85
2019-05-26T23:43:55.706Z,36.88
2019-05-26T23:46:39.316Z,31.77
2019-05-26T23:49:02.397Z,31.48
2019-05-26T23:54:40.393Z,31.12
2019-05-26T23:57:27.542Z,29.42
